createdAt,value
2022-09-18T00:01:38.025Z,100.00
2022-09-18T00:04:09.163Z,100.00
2022-09-18T00:06:42.172Z,100.00
2022-09-18T00:09:12.969Z,100.00
2022-09-18T00:11:44.282Z,100.00
2022-09-18T00:14:15.143Z,100.00
2022-09-18T00:16:43.985Z,100.00
2022-09-18T00:19:12.701Z,100.00
2022-09-18T00:21:44.383Z,100.00
2022-09-18T00:24:13.467Z,100.00
2022-09-18T00:26:42.066Z,100.00
2022-09-18T00:29:11.190Z,100.00
2022-09-18T00:31:40.019Z,100.00
2022-09-18T00:34:11.391Z,100.00
2022-09-18T00:36:40.408Z,100.00
2022-09-18T00:39:10.095Z,100.00
2022-09-18T00:41:40.605Z,100.00
2022-09-18T00:44:40.578Z,100.00
2022-09-18T00:47:19.170Z,100.00
2022-09-18T00:49:52.580Z,100.00
2022-09-18T00:52:23.407Z,100.00
2022-09-18T00:54:56.987Z,100.00
2022-09-18T00:57:29.388Z,100.00
2022-09-18T00:59:58.625Z,100.00
2022-09-18T01:02:26.915Z,100.00
2022-09-18T01:04:55.670Z,100.00
2022-09-18T01:07:37.482Z,100.00
2022-09-18T01:10:19.036Z,100.00
2022-09-18T01:12:53.843Z,100.00
2022-09-18T01:15:35.294Z,100.00
2022-09-18T01:18:11.933Z,100.00
2022-09-18T01:21:13.125Z,100.00
2022-09-18T01:24:13.171Z,100.00
2022-09-18T01:26:56.346Z,100.00
2022-09-18T01:29:36.918Z,100.00
2022-09-18T01:32:09.854Z,100.00
2022-09-18T01:34:47.332Z,100.00
2022-09-18T01:37:21.482Z,100.00
2022-09-18T01:39:55.630Z,100.00
2022-09-18T01:42:27.265Z,100.00
2022-09-18T01:45:02.111Z,100.00
2022-09-18T01:47:37.142Z,100.00
2022-09-18T01:50:07.703Z,100.00
2022-09-18T01:52:41.480Z,100.00
2022-09-18T01:55:16.708Z,100.00
2022-09-18T01:57:50.998Z,100.00
2022-09-18T02:00:22.982Z,100.00
2022-09-18T02:02:55.730Z,100.00
2022-09-18T02:05:28.042Z,100.00
2022-09-18T02:08:05.831Z,100.00
2022-09-18T02:10:36.860Z,100.00
2022-09-18T02:13:08.554Z,100.00
2022-09-18T02:15:41.483Z,100.00
2022-09-18T02:18:14.397Z,100.00
2022-09-18T02:20:45.741Z,100.00
2022-09-18T02:23:14.060Z,100.00
2022-09-18T02:25:47.097Z,100.00
2022-09-18T02:28:18.702Z,100.00
2022-09-18T02:30:49.268Z,100.00
2022-09-18T02:33:28.692Z,100.00
2022-09-18T02:36:53.151Z,100.00
2022-09-18T02:39:42.381Z,100.00
2022-09-18T02:42:25.915Z,100.00
2022-09-18T02:45:04.886Z,100.00
2022-09-18T02:47:47.487Z,98.42
2022-09-18T02:50:19.536Z,96.10
2022-09-18T02:52:55.955Z,95.73
2022-09-18T02:55:28.867Z,95.57
2022-09-18T02:58:01.993Z,95.54
2022-09-18T03:00:32.299Z,94.79
2022-09-18T03:03:02.329Z,92.03
2022-09-18T03:05:30.723Z,89.86
2022-09-18T03:07:58.870Z,88.52
2022-09-18T03:10:27.054Z,87.59
2022-09-18T03:12:55.140Z,89.63
2022-09-18T03:15:23.462Z,87.86
2022-09-18T03:17:51.655Z,86.43
2022-09-18T03:20:21.126Z,86.96
2022-09-18T03:22:49.710Z,86.27
2022-09-18T03:25:17.873Z,87.53
2022-09-18T03:27:45.936Z,85.52
2022-09-18T03:30:14.251Z,85.85
2022-09-18T03:32:42.324Z,86.44
2022-09-18T03:35:11.010Z,86.72
2022-09-18T03:37:40.638Z,86.99
2022-09-18T03:40:10.311Z,86.67
2022-09-18T03:42:38.669Z,88.21
2022-09-18T03:45:08.252Z,87.57
2022-09-18T03:47:36.901Z,89.52
2022-09-18T03:50:06.090Z,89.41
2022-09-18T03:52:34.938Z,89.43
2022-09-18T03:55:04.904Z,88.46
2022-09-18T03:57:32.976Z,89.35
2022-09-18T04:00:01.088Z,88.12
2022-09-18T04:02:29.399Z,88.16
2022-09-18T04:04:57.902Z,88.22
2022-09-18T04:07:26.309Z,88.10
2022-09-18T04:09:54.793Z,88.42
2022-09-18T04:12:24.623Z,88.78
2022-09-18T04:14:52.797Z,88.61
2022-09-18T04:17:20.899Z,87.64
2022-09-18T04:19:53.421Z,88.18
2022-09-18T04:22:22.121Z,88.46
2022-09-18T04:24:51.518Z,85.38
2022-09-18T04:27:19.864Z,85.53
2022-09-18T04:29:49.430Z,84.66
2022-09-18T04:32:17.552Z,84.50
2022-09-18T04:34:45.723Z,80.85
2022-09-18T04:37:14.042Z,79.29
2022-09-18T04:39:42.200Z,79.06
2022-09-18T04:42:10.296Z,77.59
2022-09-18T04:44:38.731Z,74.42
2022-09-18T04:47:08.481Z,74.07
2022-09-18T04:49:36.595Z,76.54
2022-09-18T04:52:04.850Z,77.41
2022-09-18T04:54:33.001Z,78.58
2022-09-18T04:57:01.055Z,79.01
2022-09-18T04:59:29.122Z,77.92
2022-09-18T05:01:57.267Z,79.63
2022-09-18T05:04:26.909Z,78.59
2022-09-18T05:06:55.102Z,79.26
2022-09-18T05:09:23.296Z,79.80
2022-09-18T05:11:52.197Z,80.63
2022-09-18T05:14:20.471Z,79.70
2022-09-18T05:16:48.798Z,80.35
2022-09-18T05:19:16.860Z,81.03
2022-09-18T05:21:46.438Z,78.33
2022-09-18T05:24:14.781Z,78.42
2022-09-18T05:26:42.862Z,76.55
2022-09-18T05:29:10.977Z,73.26
2022-09-18T05:31:39.139Z,71.09
2022-09-18T05:34:07.279Z,72.88
2022-09-18T05:36:35.351Z,71.68
2022-09-18T05:39:05.206Z,71.14
2022-09-18T05:41:33.285Z,67.56
2022-09-18T05:44:01.416Z,66.05
2022-09-18T05:46:29.586Z,62.08
2022-09-18T05:48:57.804Z,59.79
2022-09-18T05:51:26.371Z,59.08
2022-09-18T05:53:54.493Z,61.95
2022-09-18T05:56:24.294Z,60.64
2022-09-18T05:58:52.455Z,60.21
2022-09-18T06:01:20.981Z,59.05
2022-09-18T06:03:50.830Z,58.40
2022-09-18T06:06:19.023Z,59.14
2022-09-18T06:08:47.361Z,56.13
2022-09-18T06:11:15.749Z,56.96
2022-09-18T06:13:49.063Z,55.63
2022-09-18T06:16:17.501Z,55.63
2022-09-18T06:18:45.891Z,57.39
2022-09-18T06:21:15.239Z,56.78
2022-09-18T06:23:43.665Z,55.12
2022-09-18T06:26:14.986Z,56.73
2022-09-18T06:28:45.051Z,60.85
2022-09-18T06:31:13.269Z,62.85
2022-09-18T06:33:41.420Z,64.82
2022-09-18T06:36:14.069Z,65.45
2022-09-18T06:38:42.171Z,65.37
2022-09-18T06:41:10.652Z,66.86
2022-09-18T06:43:38.850Z,65.33
2022-09-18T06:46:10.564Z,67.09
2022-09-18T06:48:38.752Z,67.76
2022-09-18T06:51:07.199Z,64.20
2022-09-18T06:53:35.367Z,64.22
2022-09-18T06:56:04.161Z,65.34
2022-09-18T06:58:32.227Z,64.25
2022-09-18T07:01:01.496Z,64.90
2022-09-18T07:03:31.247Z,65.29
2022-09-18T07:05:59.459Z,67.21
2022-09-18T07:08:27.650Z,67.41
2022-09-18T07:10:55.719Z,65.53
2022-09-18T07:13:24.154Z,63.25
2022-09-18T07:15:52.434Z,63.70
2022-09-18T07:18:21.381Z,63.63
2022-09-18T07:20:50.880Z,62.26
2022-09-18T07:23:19.140Z,61.74
2022-09-18T07:25:47.831Z,61.95
2022-09-18T07:28:15.911Z,61.75
2022-09-18T07:30:44.269Z,61.15
2022-09-18T07:33:12.379Z,61.32
2022-09-18T07:35:41.673Z,59.14
2022-09-18T07:38:11.760Z,58.65
2022-09-18T07:40:41.285Z,57.99
2022-09-18T07:43:11.646Z,58.30
2022-09-18T07:45:40.614Z,58.17
2022-09-18T07:48:09.234Z,58.91
2022-09-18T07:50:37.304Z,59.38
2022-09-18T07:53:07.621Z,59.40
2022-09-18T07:55:37.659Z,57.14
2022-09-18T07:58:08.023Z,58.87
2022-09-18T08:00:39.200Z,56.92
2022-09-18T08:03:09.556Z,57.40
2022-09-18T08:05:37.856Z,57.71
2022-09-18T08:08:06.418Z,57.95
2022-09-18T08:10:36.751Z,55.10
2022-09-18T08:13:05.106Z,55.64
2022-09-18T08:15:34.543Z,54.49
2022-09-18T08:18:02.767Z,54.70
2022-09-18T08:20:31.003Z,56.14
2022-09-18T08:22:59.268Z,54.89
2022-09-18T08:25:28.622Z,53.77
2022-09-18T08:28:01.754Z,52.92
2022-09-18T08:30:30.682Z,53.97
2022-09-18T08:33:00.162Z,54.12
2022-09-18T08:35:28.723Z,52.28
2022-09-18T08:37:56.823Z,53.86
2022-09-18T08:40:41.182Z,52.10
2022-09-18T08:43:23.234Z,52.17
2022-09-18T08:45:58.627Z,51.85
2022-09-18T08:48:30.105Z,52.29
2022-09-18T08:51:02.735Z,51.80
2022-09-18T08:53:35.925Z,52.00
2022-09-18T08:56:14.057Z,52.20
2022-09-18T08:58:50.287Z,50.13
2022-09-18T09:01:20.565Z,51.54
2022-09-18T09:03:56.717Z,49.29
2022-09-18T09:06:42.642Z,48.29
2022-09-18T09:09:25.573Z,48.21
2022-09-18T09:12:03.076Z,48.17
2022-09-18T09:14:56.571Z,48.18
2022-09-18T09:17:41.442Z,47.88
2022-09-18T09:20:37.320Z,48.52
2022-09-18T09:23:07.959Z,50.07
2022-09-18T09:25:45.835Z,49.31
2022-09-18T09:28:18.153Z,49.80
2022-09-18T09:30:54.718Z,50.36
2022-09-18T09:33:28.117Z,49.46
2022-09-18T09:36:02.910Z,48.39
2022-09-18T09:38:39.351Z,48.65
2022-09-18T09:41:27.790Z,47.34
2022-09-18T09:44:04.482Z,47.48
2022-09-18T09:46:49.575Z,47.83
2022-09-18T09:49:24.271Z,46.16
2022-09-18T09:52:00.002Z,46.74
2022-09-18T09:54:28.238Z,45.09
2022-09-18T09:57:09.044Z,45.74
2022-09-18T09:59:46.542Z,46.47
2022-09-18T10:02:33.812Z,46.09
2022-09-18T10:05:08.530Z,46.18
2022-09-18T10:07:42.416Z,45.55
2022-09-18T10:10:23.815Z,45.12
2022-09-18T10:12:55.997Z,45.74
2022-09-18T10:15:27.695Z,45.35
2022-09-18T10:18:00.828Z,45.48
2022-09-18T10:20:31.819Z,44.59
2022-09-18T10:23:04.050Z,44.51
2022-09-18T10:25:39.136Z,44.85
2022-09-18T10:28:07.241Z,45.35
2022-09-18T10:30:35.710Z,45.23
2022-09-18T10:33:05.356Z,45.76
2022-09-18T10:35:52.768Z,45.16
2022-09-18T10:38:32.393Z,44.18
2022-09-18T10:41:32.184Z,43.89
2022-09-18T10:44:08.704Z,42.94
2022-09-18T10:46:40.933Z,43.91
2022-09-18T10:49:21.065Z,44.03
2022-09-18T10:51:49.289Z,45.68
2022-09-18T10:54:19.932Z,44.38
2022-09-18T10:56:48.012Z,44.84
2022-09-18T10:59:34.127Z,44.30
2022-09-18T11:02:05.189Z,43.70
2022-09-18T11:04:35.648Z,43.75
2022-09-18T11:07:07.606Z,43.41
2022-09-18T11:09:39.870Z,43.55
2022-09-18T11:12:16.121Z,43.54
2022-09-18T11:14:48.083Z,43.02
2022-09-18T11:17:25.578Z,42.16
2022-09-18T11:19:57.264Z,40.70
2022-09-18T11:22:39.102Z,40.48
2022-09-18T11:25:23.014Z,41.63
2022-09-18T11:27:52.679Z,40.21
2022-09-18T11:30:23.672Z,41.14
2022-09-18T11:32:55.745Z,40.38
2022-09-18T11:35:27.735Z,39.01
2022-09-18T11:37:59.199Z,39.93
2022-09-18T11:40:31.565Z,39.02
2022-09-18T11:43:05.517Z,39.46
2022-09-18T11:45:51.051Z,38.90
2022-09-18T11:48:31.099Z,38.59
2022-09-18T11:51:03.516Z,38.08
2022-09-18T11:53:35.355Z,38.46
2022-09-18T11:56:08.587Z,38.62
2022-09-18T11:58:42.495Z,39.22
2022-09-18T12:01:22.163Z,39.01
2022-09-18T12:03:57.405Z,39.28
2022-09-18T12:06:36.096Z,38.82
2022-09-18T12:09:14.998Z,37.26
2022-09-18T12:11:50.160Z,38.20
2022-09-18T12:14:23.015Z,37.83
2022-09-18T12:16:59.023Z,38.82
2022-09-18T12:19:33.038Z,38.50
2022-09-18T12:22:10.208Z,37.20
2022-09-18T12:24:38.304Z,37.29
2022-09-18T12:27:16.558Z,37.50
2022-09-18T12:30:02.490Z,37.46
2022-09-18T12:32:56.156Z,38.19
2022-09-18T12:35:36.340Z,37.95
2022-09-18T12:38:18.380Z,39.14
2022-09-18T12:41:05.703Z,37.31
2022-09-18T12:43:50.577Z,37.44
2022-09-18T12:46:51.199Z,38.13
2022-09-18T12:49:36.901Z,38.49
2022-09-18T12:52:16.986Z,38.60
2022-09-18T12:55:21.603Z,37.75
2022-09-18T12:58:02.411Z,37.03
2022-09-18T13:00:31.402Z,37.82
2022-09-18T13:03:09.199Z,37.79
2022-09-18T13:05:41.527Z,37.99
2022-09-18T13:08:16.460Z,37.53
2022-09-18T13:10:47.687Z,38.30
2022-09-18T13:13:21.237Z,37.74
2022-09-18T13:15:52.754Z,37.57
2022-09-18T13:18:30.991Z,38.72
2022-09-18T13:21:01.116Z,38.39
2022-09-18T13:23:36.319Z,38.62
2022-09-18T13:26:09.036Z,37.62
2022-09-18T13:28:37.696Z,37.10
2022-09-18T13:31:28.152Z,36.40
2022-09-18T13:33:58.679Z,36.49
2022-09-18T13:36:29.599Z,37.23
2022-09-18T13:39:02.394Z,36.83
2022-09-18T13:41:43.255Z,37.34
2022-09-18T13:44:20.956Z,36.46
2022-09-18T13:46:50.862Z,37.58
2022-09-18T13:49:30.238Z,38.10
2022-09-18T13:52:18.556Z,37.97
2022-09-18T13:55:01.550Z,38.03
2022-09-18T13:57:34.269Z,37.77
2022-09-18T14:00:09.135Z,38.37
2022-09-18T14:02:38.807Z,37.58
2022-09-18T14:05:27.744Z,37.39
2022-09-18T14:08:10.685Z,37.33
2022-09-18T14:11:14.035Z,37.75
2022-09-18T14:13:54.377Z,38.21
2022-09-18T14:16:32.356Z,38.09
2022-09-18T14:19:05.864Z,38.42
2022-09-18T14:21:40.318Z,38.17
2022-09-18T14:24:38.497Z,38.50
2022-09-18T14:27:35.975Z,38.23
2022-09-18T14:30:17.237Z,37.65
2022-09-18T14:33:03.607Z,37.93
2022-09-18T14:35:37.181Z,38.35
2022-09-18T14:38:18.801Z,38.76
2022-09-18T14:40:54.393Z,38.42
2022-09-18T14:43:24.869Z,38.15
2022-09-18T14:45:55.263Z,38.24
2022-09-18T14:48:29.285Z,37.69
2022-09-18T14:51:06.745Z,37.86
2022-09-18T14:53:43.911Z,38.60
2022-09-18T14:56:17.696Z,38.84
2022-09-18T14:58:50.572Z,39.49
2022-09-18T15:01:25.007Z,38.76
2022-09-18T15:03:54.862Z,38.48
2022-09-18T15:06:26.912Z,38.54
2022-09-18T15:08:56.958Z,38.71
2022-09-18T15:11:37.539Z,38.45
2022-09-18T15:14:22.765Z,38.84
2022-09-18T15:16:59.456Z,38.87
2022-09-18T15:19:28.367Z,38.62
2022-09-18T15:21:57.242Z,39.32
2022-09-18T15:24:25.926Z,39.20
2022-09-18T15:26:56.873Z,37.93
2022-09-18T15:29:31.097Z,38.19
2022-09-18T15:32:04.198Z,37.84
2022-09-18T15:34:41.910Z,38.28
2022-09-18T15:37:20.744Z,38.70
2022-09-18T15:39:59.939Z,38.91
2022-09-18T15:42:30.620Z,39.62
2022-09-18T15:45:20.439Z,39.65
2022-09-18T15:47:50.524Z,40.01
2022-09-18T15:50:39.209Z,40.69
2022-09-18T15:53:26.821Z,41.32
2022-09-18T15:56:04.171Z,41.55
2022-09-18T15:58:43.474Z,41.36
2022-09-18T16:01:28.735Z,42.65
2022-09-18T16:04:08.718Z,41.64
2022-09-18T16:06:44.176Z,41.72
2022-09-18T16:09:25.618Z,40.25
2022-09-18T16:11:54.046Z,39.45
2022-09-18T16:14:42.070Z,40.08
2022-09-18T16:17:41.349Z,39.60
2022-09-18T16:20:26.881Z,39.79
2022-09-18T16:22:58.238Z,39.91
2022-09-18T16:25:29.562Z,39.93
2022-09-18T16:27:59.715Z,40.01
2022-09-18T16:30:29.782Z,40.69
2022-09-18T16:33:03.314Z,40.56
2022-09-18T16:35:32.825Z,41.25
2022-09-18T16:38:00.938Z,39.79
2022-09-18T16:40:31.382Z,39.40
2022-09-18T16:42:59.511Z,39.45
2022-09-18T16:45:28.342Z,39.79
2022-09-18T16:48:00.620Z,40.35
2022-09-18T16:50:29.265Z,40.39
2022-09-18T16:53:01.564Z,40.41
2022-09-18T16:55:31.890Z,40.89
2022-09-18T16:58:01.202Z,40.93
2022-09-18T17:00:29.529Z,41.49
2022-09-18T17:02:57.945Z,41.34
2022-09-18T17:05:26.211Z,41.38
2022-09-18T17:07:54.335Z,41.34
2022-09-18T17:10:24.102Z,42.17
2022-09-18T17:12:52.174Z,41.74
2022-09-18T17:15:20.426Z,42.16
2022-09-18T17:17:48.515Z,42.20
2022-09-18T17:20:17.971Z,42.79
2022-09-18T17:22:46.601Z,42.69
2022-09-18T17:25:16.119Z,42.60
2022-09-18T17:27:45.784Z,43.48
2022-09-18T17:30:14.351Z,42.89
2022-09-18T17:32:42.442Z,42.33
2022-09-18T17:35:11.602Z,43.14
2022-09-18T17:37:39.807Z,42.71
2022-09-18T17:40:09.115Z,42.54
2022-09-18T17:42:38.129Z,42.74
2022-09-18T17:45:08.981Z,42.21
2022-09-18T17:47:37.108Z,42.77
2022-09-18T17:50:06.311Z,43.25
2022-09-18T17:52:35.864Z,42.60
2022-09-18T17:55:04.416Z,42.66
2022-09-18T17:57:38.223Z,43.26
2022-09-18T18:00:09.967Z,42.16
2022-09-18T18:02:38.130Z,42.44
2022-09-18T18:05:07.071Z,42.84
2022-09-18T18:07:35.264Z,42.26
2022-09-18T18:10:04.564Z,42.49
2022-09-18T18:12:32.651Z,42.52
2022-09-18T18:15:00.844Z,42.00
2022-09-18T18:17:36.032Z,41.75
2022-09-18T18:20:05.291Z,41.95
2022-09-18T18:22:33.407Z,42.30
2022-09-18T18:25:01.536Z,42.19
2022-09-18T18:27:29.763Z,42.38
2022-09-18T18:29:57.850Z,42.28
2022-09-18T18:32:25.948Z,43.05
2022-09-18T18:34:55.559Z,43.42
2022-09-18T18:37:23.794Z,43.71
2022-09-18T18:39:52.659Z,44.37
2022-09-18T18:42:21.027Z,44.07
2022-09-18T18:44:49.280Z,44.61
2022-09-18T18:47:18.225Z,44.61
2022-09-18T18:49:46.351Z,45.19
2022-09-18T18:52:15.904Z,45.27
2022-09-18T18:54:44.311Z,45.50
2022-09-18T18:57:12.461Z,45.85
2022-09-18T18:59:40.739Z,46.43
2022-09-18T19:02:11.146Z,46.91
2022-09-18T19:04:40.614Z,46.96
2022-09-18T19:07:08.765Z,47.39
2022-09-18T19:09:38.543Z,47.61
2022-09-18T19:12:06.891Z,48.21
2022-09-18T19:14:38.061Z,48.53
2022-09-18T19:17:06.616Z,48.36
2022-09-18T19:19:34.743Z,48.18
2022-09-18T19:22:03.011Z,48.66
2022-09-18T19:24:31.371Z,48.97
2022-09-18T19:27:01.207Z,49.45
2022-09-18T19:29:30.670Z,49.38
2022-09-18T19:32:00.383Z,48.96
2022-09-18T19:34:28.617Z,49.00
2022-09-18T19:36:56.746Z,48.67
2022-09-18T19:39:24.926Z,48.90
2022-09-18T19:41:59.436Z,48.92
2022-09-18T19:44:35.081Z,49.01
2022-09-18T19:47:07.045Z,48.89
2022-09-18T19:49:38.867Z,49.02
2022-09-18T19:52:18.036Z,49.15
2022-09-18T19:54:46.175Z,48.98
2022-09-18T19:57:14.745Z,49.01
2022-09-18T19:59:44.233Z,49.12
2022-09-18T20:02:13.913Z,48.72
2022-09-18T20:04:42.125Z,48.80
2022-09-18T20:07:10.890Z,48.47
2022-09-18T20:09:40.380Z,48.19
2022-09-18T20:12:09.277Z,48.13
2022-09-18T20:14:37.386Z,47.93
2022-09-18T20:17:07.002Z,47.96
2022-09-18T20:19:35.574Z,47.89
2022-09-18T20:22:04.485Z,47.69
2022-09-18T20:24:33.305Z,47.73
2022-09-18T20:27:01.873Z,47.37
2022-09-18T20:29:30.557Z,47.53
2022-09-18T20:31:58.776Z,47.62
2022-09-18T20:34:28.404Z,47.29
2022-09-18T20:36:56.526Z,47.47
2022-09-18T20:39:24.721Z,47.38
2022-09-18T20:41:52.847Z,47.66
2022-09-18T20:44:21.066Z,47.84
2022-09-18T20:46:50.531Z,47.85
2022-09-18T20:49:18.652Z,47.66
2022-09-18T20:51:48.229Z,48.18
2022-09-18T20:54:19.344Z,48.30
2022-09-18T20:56:47.559Z,48.19
2022-09-18T20:59:18.607Z,48.47
2022-09-18T21:01:47.793Z,48.41
2022-09-18T21:04:19.655Z,48.16
2022-09-18T21:06:56.604Z,47.74
2022-09-18T21:09:26.520Z,47.60
2022-09-18T21:11:55.094Z,47.51
2022-09-18T21:14:24.700Z,47.54
2022-09-18T21:16:52.838Z,47.68
2022-09-18T21:19:21.426Z,47.31
2022-09-18T21:21:50.958Z,47.38
2022-09-18T21:24:19.280Z,48.01
2022-09-18T21:26:49.248Z,47.96
2022-09-18T21:29:20.893Z,48.41
2022-09-18T21:31:51.540Z,48.35
2022-09-18T21:34:23.511Z,47.85
2022-09-18T21:36:54.330Z,48.01
2022-09-18T21:39:22.501Z,47.97
2022-09-18T21:41:53.288Z,48.04
2022-09-18T21:44:24.800Z,48.38
2022-09-18T21:46:52.995Z,48.83
2022-09-18T21:49:22.856Z,48.75
2022-09-18T21:51:55.910Z,49.37
2022-09-18T21:54:25.492Z,49.23
2022-09-18T21:56:55.358Z,49.84
2022-09-18T21:59:25.319Z,50.29
2022-09-18T22:01:55.453Z,50.35
2022-09-18T22:04:26.318Z,50.60
2022-09-18T22:06:57.767Z,51.05
2022-09-18T22:09:28.120Z,50.98
2022-09-18T22:11:57.379Z,51.33
2022-09-18T22:14:28.743Z,51.62
2022-09-18T22:16:57.054Z,51.78
2022-09-18T22:19:25.186Z,51.45
2022-09-18T22:21:55.360Z,52.04
2022-09-18T22:24:26.874Z,51.67
2022-09-18T22:26:57.874Z,51.78
2022-09-18T22:29:27.766Z,51.79
2022-09-18T22:31:56.806Z,52.10
2022-09-18T22:34:28.477Z,51.63
2022-09-18T22:36:59.578Z,50.77
2022-09-18T22:39:28.698Z,50.71
2022-09-18T22:41:57.408Z,50.68
2022-09-18T22:44:25.614Z,50.92
2022-09-18T22:46:54.898Z,50.39
2022-09-18T22:49:24.293Z,50.68
2022-09-18T22:51:52.799Z,50.23
2022-09-18T22:54:28.370Z,50.01
2022-09-18T22:56:57.020Z,49.66
2022-09-18T22:59:26.697Z,49.77
2022-09-18T23:01:57.957Z,49.79
2022-09-18T23:04:29.904Z,49.72
2022-09-18T23:06:59.309Z,49.88
2022-09-18T23:09:29.718Z,49.92
2022-09-18T23:11:59.028Z,49.92
2022-09-18T23:14:29.177Z,50.13
2022-09-18T23:16:58.131Z,50.13
2022-09-18T23:19:28.249Z,50.12
2022-09-18T23:21:57.170Z,50.12
2022-09-18T23:24:26.263Z,50.04
2022-09-18T23:26:58.650Z,50.08
2022-09-18T23:29:28.521Z,49.88
2022-09-18T23:31:57.423Z,50.19
2022-09-18T23:34:29.231Z,50.01
2022-09-18T23:36:58.197Z,50.58
2022-09-18T23:39:28.749Z,50.58
2022-09-18T23:41:59.442Z,50.65
2022-09-18T23:44:30.562Z,50.83
2022-09-18T23:46:59.419Z,50.91
2022-09-18T23:49:28.345Z,51.20
2022-09-18T23:51:56.732Z,51.88
2022-09-18T23:54:26.391Z,51.84
2022-09-18T23:56:57.484Z,52.45
2022-09-18T23:59:26.912Z,53.03
